Time;durP1;ratioP1;P1;durP2;ratioP2;P2;SDS_P1;SDS_P2;PMS_P1;PMS_P2;Temp;Humidity;BMP_temperature;BMP_pressure;BME280_temperature;BME280_humidity;BME280_pressure;Samples;Min_cycle;Max_cycle;Signal;HPM_P1;HPM_P2
2023/01/27 00:02:21;;;;;;;12.07;2.77;;;4.00;99.90;;;;;;5030716;28;20026;-52
2023/01/27 00:04:47;;;;;;;10.90;2.17;;;4.00;99.90;;;;;;5029355;28;20359;-52
2023/01/27 00:07:13;;;;;;;10.87;2.63;;;4.00;99.90;;;;;;5030808;28;20025;-50
2023/01/27 00:09:40;;;;;;;10.13;2.30;;;4.00;99.90;;;;;;5030700;28;20072;-52
2023/01/27 00:15:00;;;;;;;11.13;2.70;;;4.00;99.90;;;;;;5030334;28;20068;-52
2023/01/27 00:17:26;;;;;;;11.37;2.43;;;4.00;99.90;;;;;;5030499;28;20061;-51
2023/01/27 00:19:52;;;;;;;10.63;2.70;;;4.00;99.90;;;;;;5030807;28;20103;-51
2023/01/27 00:25:02;;;;;;;11.37;2.80;;;4.00;99.90;;;;;;5032871;28;20044;-50
2023/01/27 00:27:27;;;;;;;9.67;2.70;;;4.00;99.90;;;;;;5034499;28;20478;-51
2023/01/27 00:29:53;;;;;;;9.37;2.50;;;4.00;99.90;;;;;;5034644;28;20087;-49
2023/01/27 00:35:04;;;;;;;7.73;2.30;;;4.00;99.90;;;;;;5034666;28;20045;-50
2023/01/27 00:37:29;;;;;;;11.50;2.97;;;3.90;99.90;;;;;;5034426;28;20087;-51
2023/01/27 00:39:55;;;;;;;9.07;2.77;;;4.00;99.90;;;;;;5034356;28;20029;-48
2023/01/27 00:42:21;;;;;;;9.90;2.97;;;4.00;99.90;;;;;;5034542;28;20061;-53
2023/01/27 00:47:33;;;;;;;9.90;2.93;;;4.00;99.90;;;;;;5032995;28;20501;-52
2023/01/27 00:49:58;;;;;;;11.13;3.00;;;4.00;99.90;;;;;;5034445;28;20061;-51
2023/01/27 00:52:24;;;;;;;10.27;2.70;;;4.00;99.90;;;;;;5016563;28;20034;-51
2023/01/27 00:54:50;;;;;;;12.43;3.53;;;4.00;99.90;;;;;;5034181;28;20393;-46
2023/01/27 00:57:16;;;;;;;12.03;3.93;;;4.00;99.90;;;;;;5034274;28;20120;-49
2023/01/27 00:59:42;;;;;;;16.60;3.83;;;3.90;99.90;;;;;;5033098;28;20033;-52
2023/01/27 01:02:07;;;;;;;13.60;4.50;;;3.90;99.90;;;;;;5033058;28;20026;-52
2023/01/27 01:04:33;;;;;;;13.27;4.40;;;3.90;99.90;;;;;;5034120;28;20029;-51
2023/01/27 01:06:59;;;;;;;10.60;3.77;;;3.90;99.90;;;;;;5032656;28;20033;-52
2023/01/27 01:09:33;;;;;;;17.60;4.60;;;3.90;99.90;;;;;;5032808;28;20025;-49
2023/01/27 01:11:59;;;;;;;10.53;4.23;;;4.00;99.90;;;;;;5032964;28;20033;-47
2023/01/27 01:14:25;;;;;;;18.17;4.43;;;4.00;99.90;;;;;;5033943;28;20096;-49
2023/01/27 01:16:51;;;;;;;12.67;4.70;;;4.00;99.90;;;;;;5032485;28;20032;-48
2023/01/27 01:19:16;;;;;;;16.90;5.27;;;4.00;99.90;;;;;;5033867;28;20072;-49
2023/01/27 01:21:42;;;;;;;14.90;5.10;;;4.00;99.90;;;;;;5033958;28;20477;-50
2023/01/27 01:24:09;;;;;;;13.33;5.17;;;4.00;99.90;;;;;;5033605;28;20017;-51
2023/01/27 01:26:34;;;;;;;16.37;5.40;;;4.00;99.90;;;;;;5033936;28;20030;-50
2023/01/27 01:29:00;;;;;;;12.83;5.33;;;3.90;99.90;;;;;;5032535;28;20049;-48
2023/01/27 01:31:26;;;;;;;16.53;5.50;;;4.00;99.90;;;;;;5032556;28;20509;-48
2023/01/27 01:33:52;;;;;;;15.97;5.80;;;3.90;99.90;;;;;;5032022;28;20033;-49
2023/01/27 01:36:19;;;;;;;12.57;5.70;;;3.90;99.90;;;;;;5032717;28;20034;-48
2023/01/27 01:38:45;;;;;;;18.87;6.93;;;3.90;99.90;;;;;;5033550;28;20041;-50
2023/01/27 01:41:15;;;;;;;15.87;6.43;;;3.90;99.90;;;;;;5033391;28;20041;-49
2023/01/27 01:43:41;;;;;;;15.07;7.30;;;3.90;99.90;;;;;;5033125;28;20036;-52
2023/01/27 01:46:09;;;;;;;20.40;6.47;;;3.90;99.90;;;;;;5032369;28;20033;-48
2023/01/27 01:49:00;;;;;;;21.27;7.43;;;3.90;99.90;;;;;;5031842;28;20085;-47
2023/01/27 01:51:28;;;;;;;19.57;6.87;;;3.90;99.90;;;;;;5032088;28;20116;-51
2023/01/27 01:54:08;;;;;;;19.23;7.77;;;3.90;99.90;;;;;;5033061;28;20490;-51
2023/01/27 01:56:41;;;;;;;22.40;8.20;;;3.90;99.90;;;;;;5031861;28;20512;-49
2023/01/27 01:59:16;;;;;;;19.70;7.63;;;3.90;99.90;;;;;;5031863;28;20034;-49
2023/01/27 02:01:42;;;;;;;15.50;7.73;;;3.90;99.90;;;;;;5033164;28;20041;-50
2023/01/27 02:04:12;;;;;;;15.97;8.40;;;3.90;99.90;;;;;;5032912;28;20021;-48
2023/01/27 02:10:30;;;;;;;16.70;8.03;;;3.90;99.90;;;;;;5031619;28;20032;-47
2023/01/27 02:12:56;;;;;;;19.57;8.50;;;3.80;99.90;;;;;;5032864;28;20060;-53
2023/01/27 02:15:22;;;;;;;17.13;8.13;;;3.80;99.90;;;;;;5031467;28;20053;-51
2023/01/27 02:17:48;;;;;;;15.13;7.57;;;3.80;99.90;;;;;;5031680;28;20398;-52
2023/01/27 02:20:23;;;;;;;16.30;8.43;;;3.80;99.90;;;;;;5031316;28;20033;-52
2023/01/27 02:23:02;;;;;;;24.13;8.43;;;3.80;99.90;;;;;;5032702;28;20057;-49
2023/01/27 02:25:34;;;;;;;20.80;8.45;;;3.80;99.90;;;;;;5032553;28;20034;-50
2023/01/27 02:28:05;;;;;;;22.70;9.80;;;3.80;99.90;;;;;;5031296;28;20105;-51
2023/01/27 02:30:31;;;;;;;21.30;9.63;;;3.70;99.90;;;;;;5032531;28;20044;-49
2023/01/27 02:32:57;;;;;;;22.60;9.47;;;3.70;99.90;;;;;;5031322;28;20581;-48
2023/01/27 02:35:37;;;;;;;27.13;10.57;;;3.70;99.90;;;;;;5032221;28;20128;-49
2023/01/27 02:38:06;;;;;;;26.80;12.43;;;3.60;99.90;;;;;;5030884;28;20037;-50
2023/01/27 02:40:32;;;;;;;28.70;12.53;;;3.60;99.90;;;;;;5030952;28;20480;-51
2023/01/27 02:42:59;;;;;;;26.83;12.93;;;3.50;99.90;;;;;;5032789;28;20029;-53
2023/01/27 02:45:25;;;;;;;29.60;13.43;;;3.50;99.90;;;;;;5030774;28;20060;-52
2023/01/27 02:47:51;;;;;;;30.60;13.93;;;3.50;99.90;;;;;;5032203;28;20026;-52
2023/01/27 02:50:18;;;;;;;32.57;14.20;;;3.40;99.90;;;;;;5030771;28;20037;-47
2023/01/27 02:52:43;;;;;;;30.43;14.23;;;3.40;99.90;;;;;;5032122;28;20033;-50
2023/01/27 02:55:11;;;;;;;28.77;14.57;;;3.30;99.90;;;;;;5030630;28;20034;-48
2023/01/27 02:57:37;;;;;;;31.70;14.50;;;3.30;99.90;;;;;;5030514;28;20029;-52
2023/01/27 03:00:22;;;;;;;29.83;14.10;;;3.20;99.90;;;;;;5031919;28;20091;-51
2023/01/27 03:02:48;;;;;;;26.97;12.63;;;3.20;99.90;;;;;;5030716;28;20490;-51
2023/01/27 03:05:14;;;;;;;27.37;12.07;;;3.10;99.90;;;;;;5013935;28;20025;-51
2023/01/27 03:07:41;;;;;;;29.53;12.50;;;3.20;99.90;;;;;;5030483;28;20382;-54
2023/01/27 03:10:08;;;;;;;23.93;10.30;;;3.20;99.90;;;;;;5030375;28;20033;-49
2023/01/27 03:12:33;;;;;;;20.20;9.43;;;3.20;99.90;;;;;;5031819;28;20049;-50
2023/01/27 03:20:27;;;;;;;16.17;8.63;;;3.20;99.90;;;;;;5030165;28;20068;-50
2023/01/27 03:22:53;;;;;;;17.80;8.47;;;3.20;99.90;;;;;;5031592;28;20443;-49
2023/01/27 03:25:21;;;;;;;22.17;8.87;;;3.10;99.90;;;;;;5030035;28;20029;-49
2023/01/27 03:27:48;;;;;;;19.43;8.23;;;3.10;99.90;;;;;;5031291;28;20091;-52
2023/01/27 03:30:40;;;;;;;16.40;8.33;;;3.10;99.90;;;;;;5014446;28;20037;-48
2023/01/27 03:33:13;;;;;;;17.00;8.53;;;3.10;99.90;;;;;;5030375;28;20033;-52
2023/01/27 03:47:05;;;;;;;17.40;8.70;;;3.00;99.90;;;;;;5030779;28;20040;-46
2023/01/27 03:49:30;;;;;;;23.00;10.40;;;3.00;99.90;;;;;;5030811;28;20025;-44
2023/01/27 03:51:56;;;;;;;20.40;9.07;;;3.00;99.90;;;;;;5030939;28;20095;-45
2023/01/27 03:54:22;;;;;;;18.07;8.90;;;3.00;99.90;;;;;;5029575;28;20501;-45
2023/01/27 03:56:48;;;;;;;18.83;8.90;;;3.00;99.90;;;;;;5030687;28;20116;-45
2023/01/27 03:59:14;;;;;;;25.23;10.47;;;2.90;99.90;;;;;;5029139;28;20029;-44
2023/01/27 04:01:42;;;;;;;24.80;10.57;;;3.00;99.90;;;;;;5030713;28;20037;-45
2023/01/27 04:07:01;;;;;;;23.13;9.77;;;2.90;99.90;;;;;;5030715;28;20092;-44
2023/01/27 04:09:28;;;;;;;21.90;9.73;;;3.00;99.90;;;;;;5030840;28;20379;-46
2023/01/27 04:11:59;;;;;;;25.53;10.27;;;3.00;99.90;;;;;;5030586;28;20030;-46
2023/01/27 04:14:25;;;;;;;26.20;10.97;;;2.90;99.90;;;;;;5030435;28;20100;-44
2023/01/27 04:16:54;;;;;;;30.00;11.30;;;2.90;99.90;;;;;;5029065;28;20079;-46
2023/01/27 04:19:20;;;;;;;26.40;11.47;;;2.90;99.90;;;;;;5030706;28;20376;-46
2023/01/27 04:21:46;;;;;;;29.50;11.60;;;2.90;99.90;;;;;;5030704;28;20486;-44
2023/01/27 04:24:16;;;;;;;28.07;12.77;;;2.90;99.90;;;;;;5030492;28;20441;-45
2023/01/27 04:26:42;;;;;;;;;;;2.90;99.90;;;;;;5031010;28;20072;-45
2023/01/27 04:29:08;;;;;;;25.03;11.30;;;2.80;99.90;;;;;;5030446;28;19913;-44
2023/01/27 04:31:34;;;;;;;30.50;12.50;;;2.80;99.90;;;;;;5030565;28;20035;-44
2023/01/27 04:34:00;;;;;;;28.07;11.40;;;2.80;99.90;;;;;;5030306;28;20040;-44
2023/01/27 04:36:26;;;;;;;26.97;11.60;;;2.80;99.90;;;;;;5030203;28;20104;-44
2023/01/27 04:38:52;;;;;;;28.77;11.33;;;2.80;99.90;;;;;;5030502;28;20400;-44
2023/01/27 04:41:18;;;;;;;33.03;11.77;;;2.80;99.90;;;;;;5030473;28;20034;-44
2023/01/27 04:43:44;;;;;;;28.10;11.83;;;2.80;99.90;;;;;;5030212;28;20029;-47
2023/01/27 04:46:09;;;;;;;29.80;11.70;;;2.80;99.90;;;;;;5030247;28;20030;-48
2023/01/27 04:48:35;;;;;;;28.30;12.27;;;2.80;99.90;;;;;;5030008;28;20040;-45
2023/01/27 04:51:01;;;;;;;28.80;11.77;;;2.90;99.90;;;;;;5030265;28;20029;-48
2023/01/27 04:53:26;;;;;;;30.80;12.00;;;2.80;99.90;;;;;;5029991;28;20032;-50
2023/01/27 04:56:03;;;;;;;35.40;12.33;;;2.80;99.90;;;;;;5030123;28;20029;-45
2023/01/27 04:58:29;;;;;;;31.33;12.73;;;2.70;99.90;;;;;;5029924;28;20110;-50
2023/01/27 05:00:55;;;;;;;35.40;12.43;;;2.80;99.90;;;;;;5030309;28;20033;-49
2023/01/27 05:03:21;;;;;;;28.37;11.53;;;2.80;99.90;;;;;;5029721;28;20068;-50
2023/01/27 05:05:46;;;;;;;29.47;12.10;;;2.80;99.90;;;;;;5029882;28;20045;-47
2023/01/27 05:08:12;;;;;;;28.87;12.47;;;2.80;99.90;;;;;;5029835;28;20490;-49
2023/01/27 05:10:38;;;;;;;30.10;12.40;;;2.80;99.90;;;;;;5029919;28;20036;-45
2023/01/27 05:13:03;;;;;;;26.00;11.53;;;2.70;99.90;;;;;;5033738;28;20033;-48
2023/01/27 05:15:29;;;;;;;31.33;12.53;;;2.70;99.90;;;;;;5033248;28;20036;-49
2023/01/27 05:17:55;;;;;;;25.73;11.37;;;2.80;99.90;;;;;;5033293;28;20037;-49
2023/01/27 05:20:21;;;;;;;25.30;11.67;;;2.80;99.90;;;;;;5033470;28;20033;-44
2023/01/27 05:22:47;;;;;;;28.90;11.53;;;2.80;99.90;;;;;;5033472;28;20029;-46
2023/01/27 05:25:13;;;;;;;27.00;12.23;;;2.80;99.90;;;;;;5033124;28;20029;-49
2023/01/27 05:27:38;;;;;;;30.10;13.20;;;2.80;99.90;;;;;;5033123;28;20033;-49
2023/01/27 05:30:05;;;;;;;26.67;11.33;;;2.80;99.90;;;;;;5033573;28;20037;-48
2023/01/27 05:32:30;;;;;;;31.27;12.33;;;2.80;99.90;;;;;;5033639;28;20033;-45
2023/01/27 05:34:56;;;;;;;27.30;12.10;;;2.80;99.90;;;;;;5032757;28;20478;-47
2023/01/27 05:37:21;;;;;;;26.70;11.00;;;2.80;99.90;;;;;;5033039;28;20109;-47
2023/01/27 05:39:47;;;;;;;26.60;11.97;;;2.80;99.90;;;;;;5032950;28;20061;-45
2023/01/27 05:42:13;;;;;;;27.53;11.43;;;2.90;99.90;;;;;;5032998;28;20028;-49
2023/01/27 05:44:38;;;;;;;27.37;11.93;;;2.90;99.90;;;;;;5032731;28;20437;-49
2023/01/27 05:47:05;;;;;;;28.73;10.73;;;2.90;99.90;;;;;;5032951;28;20053;-45
2023/01/27 05:49:31;;;;;;;24.70;11.50;;;3.00;99.90;;;;;;5033031;28;20470;-47
2023/01/27 05:51:56;;;;;;;26.80;11.63;;;2.90;99.90;;;;;;5032977;28;20029;-46
2023/01/27 05:54:22;;;;;;;28.23;12.10;;;2.90;99.90;;;;;;5031376;28;20139;-45
2023/01/27 05:56:48;;;;;;;27.80;11.77;;;3.00;99.90;;;;;;5032665;28;20057;-50
2023/01/27 05:59:13;;;;;;;26.77;11.13;;;2.90;99.90;;;;;;5032827;28;20072;-49
2023/01/27 06:01:39;;;;;;;22.93;10.77;;;3.00;99.90;;;;;;5032494;28;20040;-45
2023/01/27 06:04:05;;;;;;;25.17;11.30;;;3.00;99.90;;;;;;5032580;28;20109;-49
2023/01/27 06:06:31;;;;;;;22.33;10.90;;;3.00;99.90;;;;;;5032484;28;20286;-51
2023/01/27 06:08:58;;;;;;;23.67;11.10;;;3.10;99.90;;;;;;5032717;28;20029;-49
2023/01/27 06:11:24;;;;;;;23.03;11.03;;;3.00;99.90;;;;;;5032547;28;20033;-47
2023/01/27 06:13:51;;;;;;;26.07;10.73;;;3.10;99.90;;;;;;5032283;28;20541;-44
2023/01/27 06:16:19;;;;;;;22.17;10.70;;;3.10;99.90;;;;;;5032445;28;20033;-47
2023/01/27 06:18:46;;;;;;;20.90;10.43;;;3.10;99.90;;;;;;5032433;28;20043;-46
2023/01/27 06:21:13;;;;;;;24.33;10.50;;;3.10;99.90;;;;;;5032235;28;20044;-45
2023/01/27 06:23:39;;;;;;;21.60;10.17;;;3.10;99.90;;;;;;5031652;28;20048;-45
2023/01/27 06:26:14;;;;;;;23.10;10.30;;;3.10;99.90;;;;;;5030899;28;20462;-45
2023/01/27 06:28:40;;;;;;;22.47;10.50;;;3.10;99.90;;;;;;5032204;28;20423;-48
2023/01/27 06:31:13;;;;;;;22.90;10.73;;;3.10;99.90;;;;;;5032149;28;20114;-44
2023/01/27 06:33:39;;;;;;;21.97;9.83;;;3.10;99.90;;;;;;5031949;28;20041;-45
2023/01/27 06:36:10;;;;;;;20.10;10.17;;;3.10;99.90;;;;;;5031727;28;20037;-48
2023/01/27 06:38:36;;;;;;;22.10;9.80;;;3.10;99.90;;;;;;5031851;28;20037;-48
2023/01/27 06:41:02;;;;;;;19.60;10.07;;;3.10;99.90;;;;;;5031958;28;20041;-46
2023/01/27 06:43:28;;;;;;;17.97;9.13;;;3.20;99.90;;;;;;5031775;28;20087;-45
2023/01/27 06:45:56;;;;;;;19.37;9.33;;;3.20;99.90;;;;;;5031886;28;20037;-46
2023/01/27 06:48:22;;;;;;;17.17;9.63;;;3.20;99.90;;;;;;5031713;28;20029;-46
2023/01/27 06:50:48;;;;;;;16.83;8.43;;;3.20;99.90;;;;;;5031650;28;20083;-51
2023/01/27 06:53:14;;;;;;;16.43;8.70;;;3.20;99.90;;;;;;5031930;28;20030;-45
2023/01/27 06:55:43;;;;;;;15.37;8.63;;;3.30;99.90;;;;;;5031757;28;20513;-47
2023/01/27 06:58:10;;;;;;;;;;;3.40;99.90;;;;;;5032086;28;20444;-45
2023/01/27 07:00:37;;;;;;;16.03;8.53;;;3.30;99.90;;;;;;5031371;28;19913;-48
2023/01/27 07:03:04;;;;;;;15.03;8.20;;;3.30;99.90;;;;;;5031475;28;20033;-45
2023/01/27 07:05:31;;;;;;;15.03;8.23;;;3.40;99.90;;;;;;5031200;28;20038;-49
2023/01/27 07:07:56;;;;;;;14.33;7.33;;;3.40;99.90;;;;;;5031344;28;20338;-49
2023/01/27 07:10:22;;;;;;;14.53;7.73;;;3.40;99.90;;;;;;5031438;28;20041;-46
2023/01/27 07:12:48;;;;;;;13.47;7.67;;;3.40;99.90;;;;;;5031497;28;20031;-46
2023/01/27 07:15:14;;;;;;;11.93;7.17;;;3.40;99.90;;;;;;5029920;28;20053;-48
2023/01/27 07:17:40;;;;;;;14.40;7.20;;;3.40;99.90;;;;;;5031356;28;20032;-45
2023/01/27 07:20:10;;;;;;;12.57;7.10;;;3.40;99.90;;;;;;5031127;28;20193;-45
2023/01/27 07:22:36;;;;;;;12.47;7.27;;;3.40;99.90;;;;;;5031405;28;20068;-47
2023/01/27 07:25:02;;;;;;;15.10;7.73;;;3.40;99.90;;;;;;5031080;28;20398;-45
2023/01/27 07:27:28;;;;;;;13.13;8.17;;;3.50;99.90;;;;;;5031015;28;20036;-47
2023/01/27 07:29:54;;;;;;;11.93;7.00;;;3.50;99.90;;;;;;5030989;28;20041;-47
2023/01/27 07:32:20;;;;;;;13.63;6.90;;;3.50;99.90;;;;;;5030904;28;20051;-45
2023/01/27 07:34:46;;;;;;;12.90;7.67;;;3.50;99.90;;;;;;5029874;28;20041;-45
2023/01/27 07:37:12;;;;;;;14.57;8.33;;;3.50;99.90;;;;;;5030847;28;20099;-46
2023/01/27 07:39:38;;;;;;;14.63;8.17;;;3.50;99.90;;;;;;5030921;28;20033;-49
2023/01/27 07:42:04;;;;;;;13.50;8.37;;;3.50;99.90;;;;;;5030753;28;20029;-46
2023/01/27 07:44:30;;;;;;;13.43;7.60;;;3.50;99.90;;;;;;5030570;28;20025;-51
2023/01/27 07:46:57;;;;;;;14.83;8.37;;;3.60;99.90;;;;;;5029118;28;20029;-45
2023/01/27 07:49:23;;;;;;;14.60;8.30;;;3.60;99.90;;;;;;5029417;28;20032;-47
2023/01/27 07:51:49;;;;;;;14.63;8.63;;;3.60;99.90;;;;;;5030674;28;20470;-48
2023/01/27 07:54:15;;;;;;;14.13;8.40;;;3.60;99.90;;;;;;5030292;28;20029;-44
2023/01/27 07:56:40;;;;;;;13.53;8.10;;;3.60;99.90;;;;;;5030447;28;20033;-46
2023/01/27 07:59:08;;;;;;;14.30;8.40;;;3.60;99.90;;;;;;5030485;28;20116;-47
2023/01/27 08:01:35;;;;;;;12.37;7.27;;;3.70;99.90;;;;;;5030500;28;20042;-46
2023/01/27 08:04:00;;;;;;;13.87;8.57;;;3.70;99.90;;;;;;5030346;28;20064;-47
2023/01/27 08:06:26;;;;;;;15.63;7.97;;;3.80;99.90;;;;;;5030279;28;20030;-48
2023/01/27 08:08:52;;;;;;;14.20;7.87;;;3.80;99.90;;;;;;5030654;28;20037;-45
2023/01/27 08:11:18;;;;;;;12.73;8.03;;;3.80;99.90;;;;;;5030732;28;20037;-48
2023/01/27 08:13:43;;;;;;;14.53;8.50;;;3.80;99.90;;;;;;5030126;28;20040;-45
2023/01/27 08:16:14;;;;;;;14.73;9.10;;;3.80;99.90;;;;;;5030122;28;20084;-45
2023/01/27 08:18:40;;;;;;;12.80;7.80;;;3.80;99.90;;;;;;5028747;28;20039;-46
2023/01/27 08:21:09;;;;;;;14.27;8.27;;;3.90;99.90;;;;;;5030348;28;20390;-48
2023/01/27 08:23:35;;;;;;;12.90;8.03;;;3.90;99.90;;;;;;5030112;28;20053;-48
2023/01/27 08:26:03;;;;;;;15.93;8.77;;;3.90;99.90;;;;;;5030272;28;20069;-45
2023/01/27 08:28:31;;;;;;;14.37;8.53;;;3.90;99.90;;;;;;5030075;28;20061;-47
2023/01/27 08:31:05;;;;;;;14.77;8.97;;;3.90;99.90;;;;;;5029015;28;20048;-49
2023/01/27 08:33:31;;;;;;;13.87;8.93;;;4.00;99.90;;;;;;5030135;28;20120;-49
2023/01/27 08:36:02;;;;;;;17.77;9.17;;;4.00;99.90;;;;;;5030156;28;20124;-49
2023/01/27 08:38:27;;;;;;;15.83;9.07;;;3.90;99.90;;;;;;5030089;28;20034;-45
2023/01/27 08:40:53;;;;;;;16.13;8.63;;;4.00;99.90;;;;;;5029947;28;20397;-49
2023/01/27 08:43:19;;;;;;;17.67;8.23;;;4.00;99.90;;;;;;5029850;28;20029;-49
2023/01/27 08:45:46;;;;;;;15.37;9.43;;;4.00;99.90;;;;;;5032101;28;20091;-48
2023/01/27 08:48:11;;;;;;;14.07;8.70;;;4.10;99.90;;;;;;5033990;28;20033;-48
2023/01/27 08:50:37;;;;;;;13.33;8.43;;;4.10;99.90;;;;;;5034199;28;20562;-49
2023/01/27 08:53:03;;;;;;;15.10;8.77;;;4.20;99.90;;;;;;5034002;28;20037;-51
2023/01/27 08:55:31;;;;;;;12.77;8.37;;;4.20;99.90;;;;;;5033991;28;20075;-50
2023/01/27 08:57:57;;;;;;;15.13;8.83;;;4.30;99.90;;;;;;5033572;28;20037;-47
2023/01/27 09:00:25;;;;;;;16.07;8.80;;;4.30;99.90;;;;;;5033971;28;20033;-47
2023/01/27 09:02:51;;;;;;;14.43;8.70;;;4.30;99.90;;;;;;5033704;28;20116;-47
2023/01/27 09:05:18;;;;;;;13.13;7.80;;;4.30;99.90;;;;;;5032251;28;20037;-46
2023/01/27 09:07:45;;;;;;;13.60;8.43;;;4.30;99.90;;;;;;5033446;28;20029;-47
2023/01/27 09:10:12;;;;;;;13.43;8.77;;;4.30;99.90;;;;;;5033612;28;20077;-49
2023/01/27 09:12:39;;;;;;;12.87;8.17;;;4.40;99.90;;;;;;5033493;28;20041;-48
2023/01/27 09:15:05;;;;;;;15.20;8.50;;;4.40;99.90;;;;;;5033443;28;20030;-47
2023/01/27 09:17:30;;;;;;;13.60;8.73;;;4.40;99.90;;;;;;5033187;28;20045;-51
2023/01/27 09:19:56;;;;;;;13.10;8.70;;;4.40;99.90;;;;;;5031857;28;20033;-50
2023/01/27 09:22:22;;;;;;;15.57;8.57;;;4.30;99.90;;;;;;5033428;28;20073;-45
2023/01/27 09:24:48;;;;;;;13.23;7.83;;;4.40;99.90;;;;;;5031883;28;20029;-48
2023/01/27 09:27:13;;;;;;;14.70;8.20;;;4.30;99.90;;;;;;5033240;28;20022;-44
2023/01/27 09:29:39;;;;;;;13.67;7.97;;;4.30;99.90;;;;;;5033478;28;20057;-50
2023/01/27 09:32:07;;;;;;;13.73;7.70;;;4.30;99.90;;;;;;5032064;28;20075;-45
2023/01/27 09:34:34;;;;;;;13.67;8.33;;;4.20;99.90;;;;;;5033141;28;20021;-49
2023/01/27 09:37:08;;;;;;;12.13;7.83;;;4.20;99.90;;;;;;5045849;23;20482;-50
2023/01/27 09:39:58;;;;;;;13.00;7.77;;;4.20;99.90;;;;;;5032933;28;20087;-49
2023/01/27 09:42:48;;;;;;;13.73;8.30;;;4.20;99.90;;;;;;5027552;28;20091;-51
2023/01/27 09:45:32;;;;;;;12.07;7.67;;;4.20;99.90;;;;;;5032938;28;20041;-50
2023/01/27 09:48:10;;;;;;;12.43;8.00;;;4.20;99.90;;;;;;5033021;28;20037;-52
2023/01/27 09:50:44;;;;;;;14.88;8.25;;;4.20;99.90;;;;;;5032940;28;20037;-49
2023/01/27 09:53:34;;;;;;;13.50;8.43;;;4.30;99.90;;;;;;5033027;28;20025;-53
2023/01/27 09:56:26;;;;;;;12.33;7.40;;;4.30;99.90;;;;;;5032710;28;20037;-52
2023/01/27 09:59:06;;;;;;;12.50;7.93;;;4.30;99.90;;;;;;5021868;28;20037;-53
2023/01/27 10:02:07;;;;;;;14.03;8.50;;;4.30;99.90;;;;;;5032670;28;20033;-50
2023/01/27 10:05:03;;;;;;;15.00;8.70;;;4.30;99.90;;;;;;5032523;28;20083;-52
2023/01/27 10:07:49;;;;;;;13.90;8.57;;;4.30;99.90;;;;;;5032421;28;20022;-51
2023/01/27 10:10:41;;;;;;;14.87;8.47;;;4.30;99.90;;;;;;5032575;28;20074;-52
2023/01/27 10:13:18;;;;;;;15.27;9.13;;;4.30;99.90;;;;;;5032416;28;20033;-51
2023/01/27 10:16:03;;;;;;;14.17;9.03;;;4.30;99.90;;;;;;5032504;28;20025;-54
2023/01/27 10:19:00;;;;;;;13.90;9.00;;;4.30;99.90;;;;;;5032773;28;20033;-49
2023/01/27 10:21:47;;;;;;;14.87;8.87;;;4.30;99.90;;;;;;5032540;28;20045;-51
2023/01/27 10:24:22;;;;;;;15.17;8.47;;;4.30;99.90;;;;;;5032263;28;20025;-52
2023/01/27 10:26:49;;;;;;;14.23;8.73;;;4.40;99.90;;;;;;5032069;28;20033;-49
2023/01/27 10:29:24;;;;;;;12.67;8.63;;;4.30;99.90;;;;;;5032267;28;20029;-52
2023/01/27 10:32:03;;;;;;;12.23;7.73;;;4.40;99.90;;;;;;5032450;28;20316;-51
2023/01/27 10:34:40;;;;;;;14.23;8.97;;;4.30;99.90;;;;;;5032212;28;20293;-51
2023/01/27 10:37:24;;;;;;;12.27;7.93;;;4.40;99.90;;;;;;5032344;28;20045;-54
2023/01/27 10:39:50;;;;;;;14.43;8.57;;;4.40;99.90;;;;;;5031945;28;20033;-53
2023/01/27 10:42:30;;;;;;;17.70;9.07;;;4.40;99.90;;;;;;5032034;28;20033;-52
2023/01/27 10:44:55;;;;;;;;;;;4.50;99.90;;;;;;5032536;28;20390;-51
2023/01/27 10:47:43;;;;;;;12.07;7.50;;;4.50;99.90;;;;;;5032258;28;19916;-51
2023/01/27 10:50:15;;;;;;;13.07;7.57;;;4.60;99.90;;;;;;5031868;28;20136;-51
2023/01/27 10:53:13;;;;;;;14.23;7.83;;;4.60;99.90;;;;;;5032193;28;20569;-52
2023/01/27 10:56:03;;;;;;;13.47;7.87;;;4.50;99.90;;;;;;5031646;28;20163;-51
2023/01/27 10:58:47;;;;;;;13.10;7.87;;;4.60;99.90;;;;;;5032193;28;20191;-50
2023/01/27 11:01:16;;;;;;;11.10;6.80;;;4.50;99.90;;;;;;5031720;28;20164;-52
2023/01/27 11:03:44;;;;;;;12.43;7.27;;;4.50;99.90;;;;;;5031539;28;20057;-51
2023/01/27 11:06:16;;;;;;;12.90;7.83;;;4.60;99.90;;;;;;5031480;28;20029;-49
2023/01/27 11:08:48;;;;;;;13.23;7.67;;;4.60;99.90;;;;;;5030393;28;20025;-53
2023/01/27 11:14:21;;;;;;;14.13;8.43;;;4.50;99.90;;;;;;5031270;28;20080;-50
2023/01/27 11:17:12;;;;;;;13.17;7.30;;;4.60;99.90;;;;;;5031147;28;20054;-52
2023/01/27 11:20:03;;;;;;;13.43;8.20;;;4.50;99.90;;;;;;5023177;28;20069;-50
2023/01/27 11:22:49;;;;;;;12.20;7.30;;;4.50;99.90;;;;;;5031374;28;20029;-49
2023/01/27 11:25:33;;;;;;;12.13;7.63;;;4.50;99.90;;;;;;5030491;28;20270;-52
2023/01/27 11:28:17;;;;;;;11.57;6.93;;;4.60;99.90;;;;;;5029616;28;20063;-49
2023/01/27 11:31:15;;;;;;;12.53;8.27;;;4.60;99.90;;;;;;5031049;28;20398;-48
2023/01/27 11:34:09;;;;;;;12.73;7.40;;;4.60;99.90;;;;;;5028276;28;20041;-47
2023/01/27 11:36:35;;;;;;;12.87;7.80;;;4.60;99.90;;;;;;5030539;28;20248;-49
2023/01/27 11:39:05;;;;;;;12.27;8.07;;;4.60;99.90;;;;;;5030870;28;20155;-48
2023/01/27 11:41:32;;;;;;;;;;;4.60;99.90;;;;;;5031481;28;20106;-49
2023/01/27 11:44:01;;;;;;;10.87;6.53;;;4.60;99.90;;;;;;5030834;28;19909;-51
2023/01/27 11:46:29;;;;;;;11.07;5.32;;;4.50;99.90;;;;;;5030585;28;20276;-51
2023/01/27 11:48:57;;;;;;;10.60;6.23;;;4.60;99.90;;;;;;5030804;28;20025;-49
2023/01/27 11:51:34;;;;;;;11.60;6.83;;;4.60;99.90;;;;;;5030575;28;20089;-51
2023/01/27 11:54:39;;;;;;;8.37;5.50;;;4.50;99.90;;;;;;5030689;28;20124;-53
2023/01/27 11:57:17;;;;;;;8.87;5.53;;;4.60;99.90;;;;;;4969132;28;20503;-48
2023/01/27 11:59:45;;;;;;;8.00;5.27;;;4.80;99.90;;;;;;5024626;28;20047;-49
2023/01/27 12:02:28;;;;;;;9.70;5.67;;;4.80;99.90;;;;;;5030499;28;20083;-50
2023/01/27 12:05:08;;;;;;;7.77;4.90;;;4.90;99.90;;;;;;5030852;28;20030;-49
2023/01/27 12:07:41;;;;;;;7.70;4.80;;;4.90;99.90;;;;;;5030465;28;20034;-53
2023/01/27 12:10:28;;;;;;;7.80;4.67;;;4.90;99.90;;;;;;5030654;28;20112;-50
2023/01/27 12:12:55;;;;;;;7.17;4.57;;;5.00;99.90;;;;;;5030599;28;20068;-51
2023/01/27 12:15:22;;;;;;;6.20;4.20;;;5.00;99.90;;;;;;5030161;28;20033;-53
2023/01/27 12:17:53;;;;;;;6.27;4.37;;;5.00;99.90;;;;;;5030305;28;20051;-52
2023/01/27 12:20:38;;;;;;;7.30;4.47;;;5.10;99.90;;;;;;5029943;28;20040;-52
2023/01/27 12:23:23;;;;;;;5.43;3.90;;;5.10;99.90;;;;;;5030526;28;20068;-52
2023/01/27 12:25:54;;;;;;;6.20;4.23;;;5.10;99.90;;;;;;5030382;28;20030;-53
2023/01/27 12:28:34;;;;;;;5.70;3.80;;;5.00;99.90;;;;;;5030269;28;20052;-53
2023/01/27 12:31:25;;;;;;;6.03;3.33;;;5.00;99.90;;;;;;5030505;28;20037;-53
2023/01/27 12:34:03;;;;;;;4.97;3.10;;;5.00;99.90;;;;;;5029666;28;20045;-50
2023/01/27 12:36:37;;;;;;;4.40;2.93;;;5.00;99.90;;;;;;5029837;28;20071;-51
2023/01/27 12:39:03;;;;;;;4.90;2.97;;;5.00;99.90;;;;;;5030455;28;20037;-52
2023/01/27 12:41:34;;;;;;;4.80;2.90;;;5.00;99.90;;;;;;5030347;28;20354;-52
2023/01/27 12:44:26;;;;;;;5.23;3.27;;;5.00;99.90;;;;;;5030176;28;20033;-50
2023/01/27 12:47:01;;;;;;;3.87;2.63;;;5.10;99.90;;;;;;5029858;28;20100;-51
2023/01/27 12:49:32;;;;;;;4.03;2.67;;;5.10;99.90;;;;;;5030110;28;20036;-48
2023/01/27 12:52:01;;;;;;;4.50;2.67;;;5.20;99.90;;;;;;5030191;28;20033;-52
2023/01/27 12:54:30;;;;;;;4.30;2.75;;;5.10;99.90;;;;;;5030067;28;20382;-49
2023/01/27 12:57:02;;;;;;;4.45;2.88;;;5.20;99.90;;;;;;5029991;28;20057;-50
2023/01/27 12:59:28;;;;;;;5.53;3.00;;;5.20;99.90;;;;;;5030084;28;20029;-53
2023/01/27 13:02:14;;;;;;;4.73;2.67;;;5.20;99.90;;;;;;5030359;28;20540;-49
2023/01/27 13:04:40;;;;;;;4.57;2.60;;;5.20;99.90;;;;;;5029835;28;20029;-51
2023/01/27 13:07:12;;;;;;;4.47;2.77;;;5.20;99.90;;;;;;5029836;28;20030;-52
2023/01/27 13:09:58;;;;;;;4.67;2.73;;;5.20;99.90;;;;;;5030448;28;20034;-51
2023/01/27 13:12:29;;;;;;;5.47;2.90;;;5.30;99.90;;;;;;5030304;28;20087;-49
2023/01/27 13:15:13;;;;;;;7.07;2.83;;;5.30;99.90;;;;;;5030055;28;20267;-48
2023/01/27 13:17:53;;;;;;;4.73;2.90;;;5.40;99.90;;;;;;5030135;28;20022;-51
2023/01/27 13:20:38;;;;;;;4.47;3.00;;;5.40;99.90;;;;;;5029979;28;20394;-49
2023/01/27 13:23:30;;;;;;;5.17;2.63;;;5.40;99.90;;;;;;5030168;28;20025;-52
2023/01/27 13:26:08;;;;;;;3.47;2.67;;;5.30;99.90;;;;;;5029797;28;20033;-52
2023/01/27 13:28:50;;;;;;;4.00;2.60;;;5.30;99.90;;;;;;5029603;28;20109;-52
2023/01/27 13:31:38;;;;;;;3.93;2.33;;;5.20;99.90;;;;;;5030107;28;20068;-51
2023/01/27 13:34:29;;;;;;;3.23;2.23;;;5.20;99.90;;;;;;5033385;28;20044;-52
2023/01/27 13:37:01;;;;;;;3.57;2.30;;;5.20;99.90;;;;;;5032905;28;20041;-52
2023/01/27 13:39:51;;;;;;;3.70;2.33;;;5.10;99.90;;;;;;5033504;28;20122;-53
2023/01/27 13:42:39;;;;;;;2.70;2.00;;;5.10;99.90;;;;;;5033366;28;20041;-50
2023/01/27 13:45:14;;;;;;;3.45;2.03;;;5.10;99.90;;;;;;5032979;28;20033;-51